• Join FlightAware (Why Join?)
  • Login
  • US Flag 
 
07:43PM EST


 

Airport Tracker/Info


-or-


 

Live Flight TrackerFlight Track Log ✈ EGF3776 ✈ 11-Jun-2013 ✈ KORD - KCLE

Flight Track Log - Related Links

Times and Time Zones

All times are in EDT time to prevent confusion due to time zone crossing. See the EGF3776 flight status page for this flight to view local times or setup timezone preferences in your user account.

Time Position Orientation Groundspeed Altitude Reporting Facility
EDT Latitude Longitude Course Direction KTS MPH feet Rate Location/Type
11:22PM 41.9500 -87.9000 78° East 171 197 1,300  Level Chicago TRACON
11:23PM 41.9167 -87.8500 132° Southeast 210 242 3,300 1,740 Climbing Chicago TRACON
11:23PM 41.9275 -87.8128 69° East 225 259 4,100 1,560 Climbing Chicago Center
11:24PM 41.9286 -87.7114 89° East 257 296 5,700 1,680 Climbing Chicago Center
11:25PM 41.9514 -87.6072 74° East 294 338 7,600 1,800 Climbing Chicago Center
11:26PM 42.0573 -87.3197 78° East  Level FlightAware Approximate
11:26PM 41.9833 -87.5044 67° East 298 343 9,400  Level Chicago Center
11:27PM 42.0799 -87.1724 78° East  Level FlightAware Approximate
11:27PM 42.0147 -87.3969 69° East 307 353 11,200  Level Chicago Center
11:28PM 42.0483 -87.2869 68° East 316 364 12,800 1,620 Climbing Chicago Center
11:29PM 42.0817 -87.1675 69° East 338 389 14,500 1,500 Climbing Chicago Center
11:30PM 42.1153 -87.0456 70° East 347 399 15,900 1,380 Climbing Chicago Center
11:31PM 42.1197 -86.9078 87° East 374 430 17,400 1,560 Climbing Chicago Center
11:32PM 42.1228 -86.7642 88° East 384 442 19,100 1,680 Climbing Chicago Center
11:33PM 42.1275 -86.6197 87° East 382 440 20,900 1,740 Climbing Chicago Center
11:34PM 42.1336 -86.4775 87° East 382 440 22,700 1,860 Climbing Chicago Center
11:35PM 42.1114 -86.3106 100° East 379 436 24,800 1,860 Climbing Chicago Center
11:36PM 42.0928 -86.1717 100° East 376 433 26,600 1,680 Climbing Chicago Center
11:37PM 42.0733 -86.0344 101° East 373 429 28,300 1,140 Climbing Chicago Center
11:38PM 42.0544 -85.9094 101° East 372 428 29,000 300 Climbing Chicago Center
11:39PM 42.0331 -85.7556 101° East 415 478 29,000  Level Chicago Center
11:40PM 42.0094 -85.5894 101° East 451 519 29,000  Level Chicago Center
11:42PM 41.9819 -85.3914 101° East 485 558 29,000  Level Chicago Center
11:43PM 41.9544 -85.2047 101° East 502 578 29,000  Level Chicago Center
11:44PM 41.9275 -85.0161 101° East 509 586 29,000  Level Chicago Center
11:45PM 41.8992 -84.8272 101° East 515 593 29,000  Level Chicago Center
11:46PM 41.8706 -84.6375 101° East 517 595 29,000  Level Chicago Center
11:46PM 41.8581 -84.5508 101° East 511 588 29,000  Level Cleveland Center
11:47PM 41.8289 -84.3622 102° East 511 588 29,000  Level Cleveland Center
11:48PM 41.7939 -84.1539 103° East 511 588 29,000  Level Cleveland Center
11:49PM 41.7656 -83.9825 102° East 511 588 29,000  Level Cleveland Center
11:50PM 41.7356 -83.7944 102° East 511 588 29,000 -720 Level Cleveland Center
11:51PM 41.7053 -83.6094 102° East 511 588 27,600 -2,220 Descending Cleveland Center
11:52PM 41.6764 -83.4300 102° East 506 582 24,600 -3,000 Descending Cleveland Center
11:53PM 41.6494 -83.2592 102° East 491 565 21,700 -3,120 Descending Cleveland Center
11:54PM 41.6181 -83.0719 103° East 472 543 18,400 -3,120 Descending Cleveland Center
11:55PM 41.6053 -82.9881 101° East 458 527 16,900 -2,520 Descending Cleveland Center
11:55PM 41.5919 -82.9264 106° East 460 529 15,900 -2,400 Descending Cleveland Center
11:56PM 41.5681 -82.7731 102° East 420 483 13,800 -2,100 Descending Cleveland Center
11:57PM 41.5472 -82.6475 102° East 400 460 12,200 -1,380 Descending Cleveland Center
11:58PM 41.5206 -82.5078 104° East 396 456 11,200 -720 Descending Cleveland Center
11:59PM 41.4961 -82.3547 102° East 391 450 10,800 -840 Descending Cleveland Center
12:00AM 41.4747 -82.2375 104° East 308 354 9,600 -1,500 Descending Cleveland Center
12:01AM 41.4639 -82.1236 97° East 309 356 7,800 -1,680 Descending Cleveland Center
12:02AM 41.4819 -82.0217 77° East 286 329 6,200 -1,620 Descending Cleveland Center
12:03AM 41.5058 -81.9278 71° East 280 322 4,800 -1,500 Descending Cleveland Center
12:03AM 41.5083 -81.9003 83° East 282 325 4,500 -1,140 Descending Cleveland Center
12:04AM 41.5236 -81.8339 73° East 257 296 3,700 -1,020 Descending Cleveland Center
12:04AM 41.5281 -81.8092 76° East 268 308 3,500 -840 Descending Cleveland Center